createdAt,value
2018-08-27T00:00:42.920Z,1010.5
2018-08-27T00:01:42.941Z,1010.49
2018-08-27T00:02:42.962Z,1010.52
2018-08-27T00:03:42.982Z,1010.5
2018-08-27T00:04:43.005Z,1010.48
2018-08-27T00:06:43.049Z,1010.49
2018-08-27T00:07:43.068Z,1010.44
2018-08-27T00:08:43.091Z,1010.47
2018-08-27T00:09:43.111Z,1010.47
2018-08-27T00:10:43.133Z,1010.48
2018-08-27T00:11:43.152Z,1010.51
2018-08-27T00:12:43.174Z,1010.51
2018-08-27T00:13:43.195Z,1010.5
2018-08-27T00:14:43.216Z,1010.51
2018-08-27T00:15:43.237Z,1010.48
2018-08-27T00:16:43.258Z,1010.49
2018-08-27T00:17:43.280Z,1010.51
2018-08-27T00:18:43.300Z,1010.51
2018-08-27T00:19:43.322Z,1010.44
2018-08-27T00:20:43.343Z,1010.45
2018-08-27T00:21:43.364Z,1010.44
2018-08-27T00:22:43.385Z,1010.4
2018-08-27T00:23:43.411Z,1010.39
2018-08-27T00:24:43.427Z,1010.42
2018-08-27T00:25:43.450Z,1010.36
2018-08-27T00:26:43.468Z,1010.36
2018-08-27T00:27:43.493Z,1010.35
2018-08-27T00:28:43.510Z,1010.33
2018-08-27T00:29:43.540Z,1010.31
2018-08-27T00:30:43.557Z,1010.27
2018-08-27T00:31:43.573Z,1010.26
2018-08-27T00:32:43.595Z,1010.29
2018-08-27T00:33:43.616Z,1010.26
2018-08-27T00:34:43.636Z,1010.27
2018-08-27T00:35:43.657Z,1010.25
2018-08-27T00:36:43.678Z,1010.28
2018-08-27T00:38:43.720Z,1010.27
2018-08-27T00:39:43.742Z,1010.31
2018-08-27T00:40:43.762Z,1010.28
2018-08-27T00:41:43.783Z,1010.26
2018-08-27T00:42:43.811Z,1010.25
2018-08-27T00:43:43.826Z,1010.24
2018-08-27T00:44:43.846Z,1010.25
2018-08-27T00:45:43.868Z,1010.27
2018-08-27T00:46:43.889Z,1010.28
2018-08-27T00:47:44.010Z,1010.28
2018-08-27T00:48:43.931Z,1010.3
2018-08-27T00:49:43.954Z,1010.3
2018-08-27T00:50:43.973Z,1010.26
2018-08-27T00:51:43.994Z,1010.27
2018-08-27T00:52:44.015Z,1010.26
2018-08-27T00:54:44.058Z,1010.25
2018-08-27T00:55:44.078Z,1010.23
2018-08-27T00:56:44.099Z,1010.26
2018-08-27T00:57:44.121Z,1010.26
2018-08-27T00:58:44.142Z,1010.25
2018-08-27T00:59:44.163Z,1010.23
2018-08-27T01:00:44.184Z,1010.23
2018-08-27T01:01:44.256Z,1010.22
2018-08-27T01:02:44.226Z,1010.21
2018-08-27T01:03:44.249Z,1010.18
2018-08-27T01:04:44.267Z,1010.18
2018-08-27T01:05:44.291Z,1010.17
2018-08-27T01:06:44.311Z,1010.16
2018-08-27T01:07:44.332Z,1010.16
2018-08-27T01:08:44.352Z,1010.17
2018-08-27T01:10:44.394Z,1010.18
2018-08-27T01:11:44.415Z,1010.18
2018-08-27T01:12:44.436Z,1010.14
2018-08-27T01:13:44.457Z,1010.13
2018-08-27T01:14:44.478Z,1010.1
2018-08-27T01:15:44.500Z,1010.08
2018-08-27T01:16:44.520Z,1010.04
2018-08-27T01:17:44.541Z,1010.05
2018-08-27T01:18:44.562Z,1010.03
2018-08-27T01:19:44.583Z,1010
2018-08-27T01:20:44.604Z,1010.01
2018-08-27T01:21:44.626Z,1009.97
2018-08-27T01:22:44.646Z,1009.98
2018-08-27T01:23:44.671Z,1010
2018-08-27T01:24:44.691Z,1009.97
2018-08-27T01:26:44.729Z,1010
2018-08-27T01:27:44.850Z,1010.03
2018-08-27T01:28:44.780Z,1010.01
2018-08-27T01:29:44.792Z,1010.01
2018-08-27T01:30:44.814Z,1010.08
2018-08-27T01:31:44.835Z,1010.05
2018-08-27T01:32:44.855Z,1010.05
2018-08-27T01:33:44.877Z,1010.04
2018-08-27T01:34:44.898Z,1010.02
2018-08-27T01:35:44.917Z,1010.02
2018-08-27T01:36:44.938Z,1009.99
2018-08-27T01:37:44.961Z,1009.94
2018-08-27T01:38:44.981Z,1009.99
2018-08-27T01:39:45.003Z,1009.97
2018-08-27T01:41:45.045Z,1009.92
2018-08-27T01:42:45.065Z,1009.94
2018-08-27T01:43:45.086Z,1009.92
2018-08-27T01:44:45.107Z,1009.9
2018-08-27T01:45:45.132Z,1009.91
2018-08-27T01:46:45.149Z,1009.93
2018-08-27T01:47:45.169Z,1009.92
2018-08-27T01:48:45.191Z,1009.92
2018-08-27T01:49:45.213Z,1009.84
2018-08-27T01:50:45.234Z,1009.92
2018-08-27T01:51:45.253Z,1009.89
2018-08-27T01:52:45.274Z,1009.92
2018-08-27T01:53:45.294Z,1009.92
2018-08-27T01:54:45.315Z,1009.91
2018-08-27T01:55:45.336Z,1009.91
2018-08-27T01:56:45.356Z,1009.87
2018-08-27T01:57:45.377Z,1009.89
2018-08-27T01:58:45.398Z,1009.89
2018-08-27T01:59:45.418Z,1009.89
2018-08-27T02:00:45.439Z,1009.87
2018-08-27T02:01:45.459Z,1009.86
2018-08-27T02:02:45.483Z,1009.88
2018-08-27T02:03:45.501Z,1009.89
2018-08-27T02:04:45.521Z,1009.89
2018-08-27T02:05:45.542Z,1009.93
2018-08-27T02:06:45.564Z,1009.93
2018-08-27T02:07:45.584Z,1009.95
2018-08-27T02:08:45.604Z,1009.96
2018-08-27T02:09:45.626Z,1009.93
2018-08-27T02:10:45.646Z,1009.94
2018-08-27T02:11:45.666Z,1009.92
2018-08-27T02:13:45.708Z,1009.93
2018-08-27T02:14:45.729Z,1009.86
2018-08-27T02:15:45.753Z,1009.86
2018-08-27T02:16:45.771Z,1009.84
2018-08-27T02:17:45.791Z,1009.8
2018-08-27T02:18:45.813Z,1009.75
2018-08-27T02:19:45.831Z,1009.75
2018-08-27T02:20:45.855Z,1009.76
2018-08-27T02:21:45.880Z,1009.76
2018-08-27T02:22:45.894Z,1009.74
2018-08-27T02:23:45.914Z,1009.73
2018-08-27T02:24:45.933Z,1009.74
2018-08-27T02:25:45.959Z,1009.73
2018-08-27T02:26:45.975Z,1009.71
2018-08-27T02:27:45.997Z,1009.74
2018-08-27T02:29:46.038Z,1009.75
2018-08-27T02:30:46.058Z,1009.73
2018-08-27T02:31:46.079Z,1009.76
2018-08-27T02:32:46.101Z,1009.78
2018-08-27T02:33:46.120Z,1009.79
2018-08-27T02:34:46.148Z,1009.75
2018-08-27T02:35:46.161Z,1009.73
2018-08-27T02:36:46.183Z,1009.72
2018-08-27T02:37:46.202Z,1009.74
2018-08-27T02:38:46.224Z,1009.73
2018-08-27T02:39:46.243Z,1009.68
2018-08-27T02:40:46.265Z,1009.71
2018-08-27T02:41:46.284Z,1009.69
2018-08-27T02:42:46.307Z,1009.71
2018-08-27T02:43:46.325Z,1009.67
2018-08-27T02:45:46.367Z,1009.62
2018-08-27T02:46:46.387Z,1009.55
2018-08-27T02:47:46.414Z,1009.52
2018-08-27T02:48:46.427Z,1009.53
2018-08-27T02:49:46.448Z,1009.51
2018-08-27T02:50:46.469Z,1009.51
2018-08-27T02:51:46.488Z,1009.5
2018-08-27T02:52:46.509Z,1009.53
2018-08-27T02:53:46.533Z,1009.55
2018-08-27T02:54:46.551Z,1009.53
2018-08-27T02:55:46.571Z,1009.51
2018-08-27T02:56:46.591Z,1009.48
2018-08-27T02:57:46.611Z,1009.49
2018-08-27T02:58:46.636Z,1009.45
2018-08-27T02:59:46.652Z,1009.46
2018-08-27T03:01:46.693Z,1009.45
2018-08-27T03:02:46.717Z,1009.41
2018-08-27T03:03:46.734Z,1009.43
2018-08-27T03:04:46.755Z,1009.39
2018-08-27T03:05:46.779Z,1009.4
2018-08-27T03:06:46.795Z,1009.41
2018-08-27T03:07:46.815Z,1009.38
2018-08-27T03:08:46.836Z,1009.41
2018-08-27T03:09:46.858Z,1009.36
2018-08-27T03:10:46.877Z,1009.37
2018-08-27T03:11:46.897Z,1009.36
2018-08-27T03:12:46.919Z,1009.34
2018-08-27T03:13:46.939Z,1009.35
2018-08-27T03:14:46.959Z,1009.34
2018-08-27T03:16:47.001Z,1009.29
2018-08-27T03:17:47.021Z,1009.32
2018-08-27T03:18:47.042Z,1009.32
2018-08-27T03:19:47.063Z,1009.29
2018-08-27T03:20:47.084Z,1009.31
2018-08-27T03:21:47.103Z,1009.29
2018-08-27T03:22:47.124Z,1009.27
2018-08-27T03:23:47.144Z,1009.27
2018-08-27T03:24:47.170Z,1009.3
2018-08-27T03:25:47.184Z,1009.32
2018-08-27T03:26:47.205Z,1009.3
2018-08-27T03:27:47.226Z,1009.28
2018-08-27T03:28:47.247Z,1009.29
2018-08-27T03:29:47.269Z,1009.28
2018-08-27T03:30:47.287Z,1009.27
2018-08-27T03:31:47.309Z,1009.25
2018-08-27T03:32:47.328Z,1009.26
2018-08-27T03:33:47.349Z,1009.27
2018-08-27T03:34:47.369Z,1009.26
2018-08-27T03:35:47.391Z,1009.27
2018-08-27T03:36:47.413Z,1009.23
2018-08-27T03:37:47.430Z,1009.17
2018-08-27T03:38:47.452Z,1009.19
2018-08-27T03:39:47.471Z,1009.16
2018-08-27T03:40:47.501Z,1009.19
2018-08-27T03:41:47.513Z,1009.17
2018-08-27T03:42:47.533Z,1009.13
2018-08-27T03:43:47.554Z,1009.16
2018-08-27T03:44:47.574Z,1009.14
2018-08-27T03:45:47.595Z,1009.13
2018-08-27T03:46:47.615Z,1009.11
2018-08-27T03:48:47.660Z,1009.09
2018-08-27T03:49:47.680Z,1009.14
2018-08-27T03:50:47.696Z,1009.13
2018-08-27T03:51:47.717Z,1009.12
2018-08-27T03:52:47.737Z,1009.13
2018-08-27T03:53:47.758Z,1009.07
2018-08-27T03:54:47.778Z,1009.09
2018-08-27T03:55:47.799Z,1009.13
2018-08-27T03:56:47.819Z,1009.13
2018-08-27T03:57:47.840Z,1009.15
2018-08-27T03:58:47.860Z,1009.14
2018-08-27T03:59:47.883Z,1009.12
2018-08-27T04:00:47.963Z,1009.17
2018-08-27T04:01:47.921Z,1009.17
2018-08-27T04:02:47.961Z,1009.18
2018-08-27T04:04:47.983Z,1009.21
2018-08-27T04:05:48.002Z,1009.2
2018-08-27T04:06:48.023Z,1009.19
2018-08-27T04:07:48.045Z,1009.24
2018-08-27T04:08:48.064Z,1009.19
2018-08-27T04:09:48.085Z,1009.18
2018-08-27T04:10:48.104Z,1009.17
2018-08-27T04:11:48.124Z,1009.21
2018-08-27T04:12:48.145Z,1009.19
2018-08-27T04:13:48.165Z,1009.19
2018-08-27T04:14:48.186Z,1009.18
2018-08-27T04:15:48.207Z,1009.18
2018-08-27T04:16:48.226Z,1009.16
2018-08-27T04:17:48.248Z,1009.22
2018-08-27T04:18:48.274Z,1009.22
2018-08-27T04:20:48.308Z,1009.22
2018-08-27T04:21:48.329Z,1009.2
2018-08-27T04:22:48.349Z,1009.23
2018-08-27T04:23:48.368Z,1009.21
2018-08-27T04:24:48.389Z,1009.2
2018-08-27T04:25:48.410Z,1009.22
2018-08-27T04:26:48.430Z,1009.19
2018-08-27T04:27:48.450Z,1009.23
2018-08-27T04:28:48.542Z,1009.21
2018-08-27T04:29:48.492Z,1009.17
2018-08-27T04:30:48.511Z,1009.18
2018-08-27T04:31:48.532Z,1009.22
2018-08-27T04:32:48.553Z,1009.19
2018-08-27T04:33:48.573Z,1009.17
2018-08-27T04:34:48.613Z,1009.15
2018-08-27T04:36:48.635Z,1009.16
2018-08-27T04:37:48.655Z,1009.13
2018-08-27T04:38:48.673Z,1009.14
2018-08-27T04:39:48.696Z,1009.14
2018-08-27T04:40:48.721Z,1009.14
2018-08-27T04:41:48.736Z,1009.12
2018-08-27T04:42:48.758Z,1009.13
2018-08-27T04:43:48.777Z,1009.13
2018-08-27T04:44:48.801Z,1009.12
2018-08-27T04:45:48.819Z,1009.17
2018-08-27T04:46:48.839Z,1009.14
2018-08-27T04:47:48.867Z,1009.19
2018-08-27T04:48:48.881Z,1009.13
2018-08-27T04:49:48.902Z,1009.13
2018-08-27T04:51:48.946Z,1009.16
2018-08-27T04:52:48.966Z,1009.13
2018-08-27T04:53:48.988Z,1009.12
2018-08-27T04:54:49.008Z,1009.2
2018-08-27T04:55:49.030Z,1009.21
2018-08-27T04:56:49.049Z,1009.14
2018-08-27T04:57:49.072Z,1009.13
2018-08-27T04:58:49.099Z,1009.11
2018-08-27T04:59:49.114Z,1009.08
2018-08-27T05:00:49.137Z,1009.09
2018-08-27T05:01:49.155Z,1009.06
2018-08-27T05:02:49.185Z,1009.04
2018-08-27T05:03:49.207Z,1008.96
2018-08-27T05:04:49.223Z,1008.97
2018-08-27T05:05:49.244Z,1008.96
2018-08-27T05:06:49.265Z,1008.99
2018-08-27T05:07:49.287Z,1009.03
2018-08-27T05:08:49.313Z,1009.23
2018-08-27T05:09:49.330Z,1009.23
2018-08-27T05:10:49.352Z,1009.19
2018-08-27T05:11:49.374Z,1008.88
2018-08-27T05:12:49.397Z,1008.91
2018-08-27T05:13:49.473Z,1008.84
2018-08-27T05:14:49.441Z,1008.91
2018-08-27T05:15:49.466Z,1008.9
2018-08-27T05:16:49.485Z,1008.93
2018-08-27T05:17:49.510Z,1008.91
2018-08-27T05:18:49.532Z,1008.93
2018-08-27T05:19:49.561Z,1008.94
2018-08-27T05:20:49.577Z,1008.94
2018-08-27T05:21:49.599Z,1008.89
2018-08-27T05:23:49.644Z,1008.84
2018-08-27T05:24:49.666Z,1008.83
2018-08-27T05:25:49.687Z,1008.84
2018-08-27T05:26:49.710Z,1008.87
2018-08-27T05:27:49.732Z,1008.88
2018-08-27T05:28:49.755Z,1008.82
2018-08-27T05:29:49.776Z,1008.88
2018-08-27T05:30:49.861Z,1008.83
2018-08-27T05:31:49.822Z,1008.89
2018-08-27T05:32:49.843Z,1008.84
2018-08-27T05:33:49.864Z,1008.88
2018-08-27T05:34:49.886Z,1008.84
2018-08-27T05:35:49.909Z,1008.82
2018-08-27T05:36:49.929Z,1008.82
2018-08-27T05:37:49.960Z,1008.74
2018-08-27T05:39:49.997Z,1008.73
2018-08-27T05:40:50.035Z,1008.69
2018-08-27T05:41:50.040Z,1008.67
2018-08-27T05:42:50.066Z,1008.69
2018-08-27T05:43:50.083Z,1008.66
2018-08-27T05:44:50.106Z,1008.67
2018-08-27T05:45:50.127Z,1008.68
2018-08-27T05:46:50.150Z,1008.7
2018-08-27T05:47:50.298Z,1008.71
2018-08-27T05:48:50.194Z,1008.73
2018-08-27T05:49:50.219Z,1008.76
2018-08-27T05:50:50.239Z,1008.72
2018-08-27T05:51:50.260Z,1008.72
2018-08-27T05:52:50.282Z,1008.73
2018-08-27T05:53:50.307Z,1008.73
2018-08-27T05:55:50.349Z,1008.61
2018-08-27T05:56:50.375Z,1008.67
2018-08-27T05:57:50.393Z,1008.68
2018-08-27T05:58:50.420Z,1008.75
2018-08-27T05:59:50.438Z,1009.02
2018-08-27T06:00:50.461Z,1008.84
2018-08-27T06:01:50.491Z,1009.52
2018-08-27T06:02:50.506Z,1009.55
2018-08-27T06:03:50.529Z,1009.59
2018-08-27T06:04:50.557Z,1009.73
2018-08-27T06:05:50.576Z,1009.79
2018-08-27T06:06:50.600Z,1009.79
2018-08-27T06:07:50.624Z,1009.87
2018-08-27T06:08:50.651Z,1009.87
2018-08-27T06:09:50.684Z,1009.53
2018-08-27T06:11:50.727Z,1008.8
2018-08-27T06:12:50.751Z,1009.53
2018-08-27T06:13:50.776Z,1009.09
2018-08-27T06:14:50.801Z,1008.88
2018-08-27T06:15:50.833Z,1008.93
2018-08-27T06:16:50.853Z,1009.08
2018-08-27T06:17:50.880Z,1009.13
2018-08-27T06:18:50.910Z,1009.39
2018-08-27T06:19:50.934Z,1009.85
2018-08-27T06:20:50.957Z,1009.81
2018-08-27T06:21:51.053Z,1009.77
2018-08-27T06:22:51.011Z,1008.91
2018-08-27T06:23:51.044Z,1008.71
2018-08-27T06:24:51.065Z,1008.69
2018-08-27T06:26:51.121Z,1008.62
2018-08-27T06:27:51.145Z,1008.61
2018-08-27T06:28:51.208Z,1008.58
2018-08-27T06:29:51.198Z,1008.56
2018-08-27T06:30:51.224Z,1008.56
2018-08-27T06:31:51.250Z,1008.52
2018-08-27T06:32:51.277Z,1008.53
2018-08-27T06:33:51.316Z,1008.5
2018-08-27T06:34:51.326Z,1008.49
2018-08-27T06:35:51.356Z,1008.48
2018-08-27T06:36:51.377Z,1008.48
2018-08-27T06:37:51.498Z,1008.44
2018-08-27T06:38:51.434Z,1008.5
2018-08-27T06:39:51.455Z,1008.67
2018-08-27T06:40:51.480Z,1009.72
2018-08-27T06:41:51.506Z,1009.3
2018-08-27T06:42:51.531Z,1008.85
2018-08-27T06:43:51.557Z,1008.62
2018-08-27T06:44:51.584Z,1008.52
2018-08-27T06:45:51.708Z,1008.46
2018-08-27T06:46:51.634Z,1008.48
2018-08-27T06:47:51.660Z,1008.72
2018-08-27T06:48:51.686Z,1008.85
2018-08-27T06:49:51.711Z,1008.54
2018-08-27T06:50:51.740Z,1008.43
2018-08-27T06:51:51.763Z,1008.42
2018-08-27T06:52:51.790Z,1008.34
2018-08-27T06:53:51.815Z,1008.24
2018-08-27T06:54:51.842Z,1008.22
2018-08-27T06:55:51.868Z,1008.16
2018-08-27T06:56:51.894Z,1008.21
2018-08-27T06:58:51.944Z,1008.12
2018-08-27T06:59:51.970Z,1008.13
2018-08-27T07:00:51.995Z,1008.11
2018-08-27T07:01:52.020Z,1008.12
2018-08-27T07:02:52.048Z,1008.11
2018-08-27T07:03:52.073Z,1008.18
2018-08-27T07:04:52.098Z,1008.17
2018-08-27T07:05:52.123Z,1008.24
2018-08-27T07:06:52.147Z,1008.38
2018-08-27T07:07:52.171Z,1008.36
2018-08-27T07:08:52.198Z,1008.26
2018-08-27T07:09:52.225Z,1008.19
2018-08-27T07:10:52.253Z,1008.13
2018-08-27T07:11:52.399Z,1008.12
2018-08-27T07:12:52.302Z,1008.11
2018-08-27T07:14:52.351Z,1008.04
2018-08-27T07:15:52.377Z,1008.16
2018-08-27T07:16:52.401Z,1008.05
2018-08-27T07:17:52.427Z,1008.04
2018-08-27T07:18:52.449Z,1008.07
2018-08-27T07:19:52.477Z,1008.07
2018-08-27T07:20:52.502Z,1008
2018-08-27T07:21:52.529Z,1008.02
2018-08-27T07:22:52.553Z,1008
2018-08-27T07:23:52.578Z,1008.03
2018-08-27T07:24:52.602Z,1008.04
2018-08-27T07:25:52.628Z,1008.07
2018-08-27T07:26:52.652Z,1008.06
2018-08-27T07:27:52.678Z,1008.07
2018-08-27T07:28:52.704Z,1008.1
2018-08-27T07:30:52.752Z,1008.04
2018-08-27T07:31:52.782Z,1008.08
2018-08-27T07:32:52.803Z,1008.04
2018-08-27T07:33:52.828Z,1008.04
2018-08-27T07:34:52.855Z,1008.02
2018-08-27T07:35:52.879Z,1008
2018-08-27T07:36:52.905Z,1007.99
2018-08-27T07:37:52.929Z,1008.03
2018-08-27T07:38:52.955Z,1008
2018-08-27T07:39:52.978Z,1007.95
2018-08-27T07:40:53.004Z,1008.02
2018-08-27T07:41:53.037Z,1007.93
2018-08-27T07:42:53.054Z,1007.93
2018-08-27T07:43:53.079Z,1007.95
2018-08-27T07:44:53.104Z,1007.94
2018-08-27T07:46:53.154Z,1007.95
2018-08-27T07:47:53.180Z,1007.92
2018-08-27T07:48:53.203Z,1007.86
2018-08-27T07:49:53.229Z,1007.89
2018-08-27T07:50:53.252Z,1007.84
2018-08-27T07:51:53.278Z,1007.88
2018-08-27T07:52:53.303Z,1007.92
2018-08-27T07:53:53.329Z,1007.96
2018-08-27T07:54:53.353Z,1008.02
2018-08-27T07:55:53.377Z,1008.13
2018-08-27T07:56:53.403Z,1008.22
2018-08-27T07:57:53.429Z,1008.3
2018-08-27T07:58:53.454Z,1008.16
2018-08-27T07:59:53.482Z,1008.12
2018-08-27T08:01:53.531Z,1008.03
2018-08-27T08:02:53.558Z,1007.93
2018-08-27T08:03:53.583Z,1007.87
2018-08-27T08:04:53.613Z,1007.91
2018-08-27T08:05:53.636Z,1008
2018-08-27T08:06:53.661Z,1007.9
2018-08-27T08:07:53.690Z,1007.97
2018-08-27T08:08:53.719Z,1007.88
2018-08-27T08:09:53.742Z,1007.87
2018-08-27T08:10:53.768Z,1007.82
2018-08-27T08:11:53.795Z,1007.85
2018-08-27T08:12:53.821Z,1007.84
2018-08-27T08:13:53.846Z,1007.83
2018-08-27T08:14:53.873Z,1008.03
2018-08-27T08:15:53.901Z,1008.19
2018-08-27T08:16:53.932Z,1008.12
2018-08-27T08:17:53.952Z,1007.96
2018-08-27T08:18:53.980Z,1007.9
2018-08-27T08:19:54.008Z,1008.03
2018-08-27T08:20:54.137Z,1007.99
2018-08-27T08:21:54.062Z,1008.02
2018-08-27T08:22:54.140Z,1008.1
2018-08-27T08:23:54.118Z,1007.98
2018-08-27T08:24:54.153Z,1007.92
2018-08-27T08:25:54.183Z,1007.81
2018-08-27T08:26:54.200Z,1007.76
2018-08-27T08:27:54.230Z,1007.81
2018-08-27T08:28:54.255Z,1007.82
2018-08-27T08:29:54.283Z,1007.74
2018-08-27T08:30:54.331Z,1007.86
2018-08-27T08:31:54.342Z,1007.81
2018-08-27T08:33:54.396Z,1007.73
2018-08-27T08:34:54.424Z,1007.69
2018-08-27T08:35:54.462Z,1007.66
2018-08-27T08:36:54.491Z,1007.84
2018-08-27T08:37:54.510Z,1007.6
2018-08-27T08:38:54.545Z,1007.76
2018-08-27T08:39:54.656Z,1007.67
2018-08-27T08:40:54.595Z,1007.71
2018-08-27T08:41:54.624Z,1007.69
2018-08-27T08:42:54.652Z,1007.63
2018-08-27T08:43:54.681Z,1007.68
2018-08-27T08:44:54.715Z,1007.63
2018-08-27T08:45:54.745Z,1007.61
2018-08-27T08:46:54.770Z,1007.62
2018-08-27T08:47:54.800Z,1007.63
2018-08-27T08:49:54.902Z,1007.59
2018-08-27T08:50:54.887Z,1007.59
2018-08-27T08:51:54.909Z,1007.62
2018-08-27T08:52:54.940Z,1007.65
2018-08-27T08:53:54.963Z,1007.75
2018-08-27T08:54:55.002Z,1007.69
2018-08-27T08:55:55.039Z,1007.73
2018-08-27T08:56:55.058Z,1007.7
2018-08-27T08:58:55.122Z,1007.64
2018-08-27T08:59:55.135Z,1007.62
2018-08-27T09:00:55.164Z,1007.64
2018-08-27T09:01:55.191Z,1007.62
2018-08-27T09:02:55.221Z,1007.62
2018-08-27T09:03:55.249Z,1007.6
2018-08-27T09:05:55.305Z,1007.49
2018-08-27T09:06:55.334Z,1007.43
2018-08-27T09:07:55.368Z,1007.56
2018-08-27T09:08:55.446Z,1007.54
2018-08-27T09:09:55.422Z,1007.54
2018-08-27T09:10:55.451Z,1007.57
2018-08-27T09:11:55.474Z,1007.58
2018-08-27T09:12:55.504Z,1007.6
2018-08-27T09:13:55.533Z,1007.6
2018-08-27T09:14:55.559Z,1007.6
2018-08-27T09:15:55.588Z,1007.54
2018-08-27T09:16:55.709Z,1007.55
2018-08-27T09:17:55.645Z,1007.56
2018-08-27T09:18:55.674Z,1007.58
2018-08-27T09:19:55.701Z,1007.51
2018-08-27T09:21:55.758Z,1007.55
2018-08-27T09:22:55.788Z,1007.48
2018-08-27T09:23:55.815Z,1007.53
2018-08-27T09:24:55.844Z,1007.55
2018-08-27T09:25:55.872Z,1007.53
2018-08-27T09:26:55.900Z,1007.48
2018-08-27T09:27:55.933Z,1007.56
2018-08-27T09:28:55.957Z,1007.52
2018-08-27T09:29:55.986Z,1007.54
2018-08-27T09:30:56.014Z,1007.55
2018-08-27T09:31:56.042Z,1007.48
2018-08-27T09:32:56.085Z,1007.49
2018-08-27T09:33:56.099Z,1007.48
2018-08-27T09:34:56.125Z,1007.42
2018-08-27T09:36:56.214Z,1007.44
2018-08-27T09:37:56.210Z,1007.46
2018-08-27T09:38:56.238Z,1007.45
2018-08-27T09:39:56.267Z,1007.47
2018-08-27T09:40:56.299Z,1007.47
2018-08-27T09:41:56.321Z,1007.55
2018-08-27T09:42:56.350Z,1007.42
2018-08-27T09:43:56.377Z,1007.45
2018-08-27T09:44:56.403Z,1007.45
2018-08-27T09:45:56.530Z,1007.5
2018-08-27T09:46:56.592Z,1007.47
2018-08-27T09:47:56.486Z,1007.42
2018-08-27T09:48:56.513Z,1007.47
2018-08-27T09:49:56.541Z,1007.45
2018-08-27T09:50:56.567Z,1007.43
2018-08-27T09:51:56.594Z,1007.36
2018-08-27T09:52:56.636Z,1007.39
2018-08-27T09:53:56.648Z,1007.42
2018-08-27T09:54:56.677Z,1007.41
2018-08-27T09:55:56.709Z,1007.35
2018-08-27T09:56:56.728Z,1007.25
2018-08-27T09:57:56.756Z,1007.29
2018-08-27T09:58:56.802Z,1007.26
2018-08-27T09:59:56.809Z,1007.28
2018-08-27T10:00:56.840Z,1007.14
2018-08-27T10:01:56.862Z,1007.25
2018-08-27T10:02:56.890Z,1007.26
2018-08-27T10:03:56.916Z,1007.31
2018-08-27T10:04:56.944Z,1007.25
2018-08-27T10:05:56.970Z,1007.31
2018-08-27T10:06:56.996Z,1007.3
2018-08-27T10:08:57.105Z,1007.26
2018-08-27T10:09:57.083Z,1007.36
2018-08-27T10:10:57.110Z,1007.34
2018-08-27T10:11:57.131Z,1007.2
2018-08-27T10:12:57.158Z,1007.21
2018-08-27T10:13:57.184Z,1007.21
2018-08-27T10:14:57.236Z,1007.26
2018-08-27T10:15:57.236Z,1007.14
2018-08-27T10:16:57.263Z,1007.2
2018-08-27T10:17:57.289Z,1007.25
2018-08-27T10:18:57.317Z,1007.22
2018-08-27T10:19:57.352Z,1007.2
2018-08-27T10:20:57.376Z,1007.18
2018-08-27T10:21:57.396Z,1007.16
2018-08-27T10:22:57.423Z,1007.18
2018-08-27T10:24:57.477Z,1007.12
2018-08-27T10:25:57.502Z,1007.16
2018-08-27T10:26:57.530Z,1007.17
2018-08-27T10:27:57.556Z,1007.19
2018-08-27T10:28:57.582Z,1007.27
2018-08-27T10:29:57.728Z,1007.23
2018-08-27T10:30:57.637Z,1007.17
2018-08-27T10:31:57.664Z,1007.23
2018-08-27T10:32:57.691Z,1007.2
2018-08-27T10:33:57.717Z,1007.22
2018-08-27T10:34:57.744Z,1007.28
2018-08-27T10:35:57.774Z,1007.16
2018-08-27T10:36:57.797Z,1007.1
2018-08-27T10:37:57.824Z,1006.96
2018-08-27T10:38:57.851Z,1007.01
2018-08-27T10:40:57.903Z,1006.98
2018-08-27T10:41:57.929Z,1006.99
2018-08-27T10:42:58.235Z,1007.01
2018-08-27T10:43:57.983Z,1006.91
2018-08-27T10:44:58.010Z,1007.02
2018-08-27T10:45:58.035Z,1006.9
2018-08-27T10:46:58.063Z,1006.96
2018-08-27T10:47:58.089Z,1006.96
2018-08-27T10:48:58.115Z,1006.91
2018-08-27T10:49:58.186Z,1006.92
2018-08-27T10:50:58.171Z,1006.92
2018-08-27T10:51:58.193Z,1006.91
2018-08-27T10:52:58.220Z,1006.96
2018-08-27T10:53:58.247Z,1006.93
2018-08-27T10:54:58.273Z,1006.99
2018-08-27T10:56:58.324Z,1007.1
2018-08-27T10:57:58.452Z,1006.97
2018-08-27T10:58:58.381Z,1006.98
2018-08-27T10:59:58.405Z,1007.01
2018-08-27T11:00:58.434Z,1007.02
2018-08-27T11:01:58.457Z,1006.91
2018-08-27T11:02:58.485Z,1006.97
2018-08-27T11:03:58.510Z,1006.92
2018-08-27T11:04:58.537Z,1006.96
2018-08-27T11:05:58.562Z,1006.96
2018-08-27T11:06:58.589Z,1006.91
2018-08-27T11:07:58.615Z,1006.84
2018-08-27T11:08:58.643Z,1007.03
2018-08-27T11:09:58.669Z,1006.92
2018-08-27T11:11:58.721Z,1007.02
2018-08-27T11:12:58.748Z,1006.96
2018-08-27T11:13:58.774Z,1006.92
2018-08-27T11:14:58.801Z,1006.99
2018-08-27T11:15:58.852Z,1006.94
2018-08-27T11:16:58.853Z,1006.99
2018-08-27T11:17:58.882Z,1006.9
2018-08-27T11:18:58.906Z,1006.94
2018-08-27T11:19:58.997Z,1006.88
2018-08-27T11:20:58.958Z,1006.85
2018-08-27T11:21:58.985Z,1006.8
2018-08-27T11:22:59.011Z,1006.83
2018-08-27T11:23:59.037Z,1006.79
2018-08-27T11:24:59.063Z,1006.85
2018-08-27T11:25:59.090Z,1006.86
2018-08-27T11:26:59.116Z,1006.82
2018-08-27T11:27:59.140Z,1006.83
2018-08-27T11:28:59.174Z,1006.8
2018-08-27T11:29:59.200Z,1006.83
2018-08-27T11:30:59.220Z,1006.91
2018-08-27T11:31:59.248Z,1006.89
2018-08-27T11:32:59.344Z,1006.81
2018-08-27T11:33:59.299Z,1006.89
2018-08-27T11:34:59.325Z,1006.99
2018-08-27T11:35:59.350Z,1006.8
2018-08-27T11:36:59.377Z,1006.78
2018-08-27T11:37:59.404Z,1006.99
2018-08-27T11:38:59.434Z,1006.89
2018-08-27T11:39:59.455Z,1006.99
2018-08-27T11:40:59.482Z,1006.94
2018-08-27T11:41:59.506Z,1006.97
2018-08-27T11:43:59.561Z,1006.99
2018-08-27T11:44:59.590Z,1007
2018-08-27T11:45:59.618Z,1006.99
2018-08-27T11:46:59.637Z,1007.05
2018-08-27T11:47:59.662Z,1007.07
2018-08-27T11:48:59.689Z,1007.02
2018-08-27T11:49:59.730Z,1006.99
2018-08-27T11:50:59.770Z,1007.02
2018-08-27T11:51:59.767Z,1006.92
2018-08-27T11:52:59.792Z,1007.02
2018-08-27T11:53:59.818Z,1006.99
2018-08-27T11:54:59.912Z,1006.97
2018-08-27T11:55:59.873Z,1007.03
2018-08-27T11:56:59.896Z,1007.05
2018-08-27T11:57:59.922Z,1007.05
2018-08-27T11:59:59.973Z,1006.92
2018-08-27T12:01:00.062Z,1006.97
2018-08-27T12:02:00.054Z,1006.92
2018-08-27T12:03:00.051Z,1006.98
2018-08-27T12:04:00.076Z,1007.1
2018-08-27T12:05:00.102Z,1006.92
2018-08-27T12:06:00.133Z,1006.99
2018-08-27T12:07:00.155Z,1006.9
2018-08-27T12:08:00.180Z,1007.01
2018-08-27T12:09:00.307Z,1006.97
2018-08-27T12:10:00.232Z,1006.95
2018-08-27T12:11:00.259Z,1006.94
2018-08-27T12:12:00.285Z,1007
2018-08-27T12:13:00.310Z,1007.02
2018-08-27T12:14:00.336Z,1006.97
2018-08-27T12:16:00.388Z,1007
2018-08-27T12:17:00.415Z,1006.97
2018-08-27T12:18:00.440Z,1006.95
2018-08-27T12:19:00.466Z,1006.94
2018-08-27T12:20:00.492Z,1007
2018-08-27T12:21:00.519Z,1006.95
2018-08-27T12:22:00.544Z,1006.88
2018-08-27T12:23:00.573Z,1006.97
2018-08-27T12:24:00.595Z,1006.92
2018-08-27T12:25:00.623Z,1006.91
2018-08-27T12:26:00.647Z,1006.99
2018-08-27T12:27:00.674Z,1007.05
2018-08-27T12:28:00.700Z,1006.93
2018-08-27T12:29:00.726Z,1007.02
2018-08-27T12:30:00.752Z,1007.01
2018-08-27T12:32:00.804Z,1007.04
2018-08-27T12:33:00.830Z,1007.04
2018-08-27T12:34:00.855Z,1007.01
2018-08-27T12:35:00.882Z,1007.07
2018-08-27T12:36:00.908Z,1007.07
2018-08-27T12:37:00.933Z,1007.06
2018-08-27T12:38:00.963Z,1007.01
2018-08-27T12:39:00.986Z,1007.08
2018-08-27T12:40:01.014Z,1007.06
2018-08-27T12:41:01.169Z,1007.08
2018-08-27T12:42:01.065Z,1007.12
2018-08-27T12:43:01.091Z,1007.07
2018-08-27T12:44:01.116Z,1007.07
2018-08-27T12:45:01.143Z,1007.08
2018-08-27T12:47:01.197Z,1007.16
2018-08-27T12:48:01.221Z,1007.09
2018-08-27T12:49:01.251Z,1007.14
2018-08-27T12:50:01.272Z,1007.11
2018-08-27T12:51:01.428Z,1007.17